Misión y Visión

La misión es proporcionar información fiable a la navegación aérea, contribuyendo a la seguridad, regularidad y eficiencia de la Navegación Aérea Internacional

La visión es contribuir sustancialmente al desarrollo de conocimientos y a la utilización de la meteorología aeronáutica a nivel nacional e internacional, mediante la innovación y la coparticipación con sectores sociales y productivos de la sociedad.

 
  Inicio
  Metar
  Taf
  Wintemp
  SIGMET
  Avisos
  Pronósticos
  Carpeta Meteorologica
  Imágenes Satelitales
  Climatología Aeronáutica
   
  ¿Quienes Somos?
  Contacto
  Eventos
Taf

 

IMÁGENES DEL AEROPUERTO
(EN CONSTRUCCION)

 

PRONOSTICO DE AERÓDROMO
TAF / PROYECCION CLIMATICA
MES DE JULIO

 

AEROPUERTO ENRIQUE MALEK:

TAF MPSM 262200Z 2700/2806 33006KT 9999 SCT017 BECMG 2704/2708 00000KT SCT015 BECMG 2714/2718 35006KT 8000 SCT018=


TAF:

TAF MPDA 251600Z 2518/2606 18008KT 9999 SCT025 SCT080 PROB30 TEMPO 2520/2524 7000 TSRA FEW013CB BECNG 2600 2506 00000KT 9999 NSW SCT015 SCT080=

 

AEROPUERTO PANAMA PACIFICO:

hola



TAF:



AEROPUERTO MARCOS A. GELABERT:



TAF:

TAF MPMG 251600Z 2518/2606 22008KT 9999 SCT018 SCT080 PROB30 TEMPO 2518/2522 7000 TSRA FEW015CB BECMG 2600/2604 00000KT 9999 NSW SCT016=

AEROPUERTO INTL. DE TOCUMEN:

TAF MPPA 262200Z 2700/2806 33006KT 9999 SCT018 BECMG 2704/2708 00000KT FEW013CB BECMG 2714/2718 35008KT 8000 SCT015=



TAF:

TAF MPTO 262200Z 2700/2806 23006KT 9999 SCT018 BECMG 2704/2708 00000KT FEW015CB BECMG 2714/2718 02006KT 8000 SCT015=


 
 



























  Noticias AAC
  Directorio
  Contáctenos
  Historia
  Quejas y Sugerencias
  Etica y Transparencia

  Gestión SSP/SMS
  Seguridad Aérea
  Navegación Aérea
  Transporte Aéreo

  Tramites
  Áeronaves de Alquiler

  Meteorología
  I.S.F.P.A
  Notam
  Peligro Aviario
  AVSEC
  UPIA
  Permisos
 




DECLARACIÓN DE PRIVACIDAD